This is the latest recevied weather packets stored in our database for station/object N9BLE. If no packets are shown the sender has not sent any weather packets the latest 1 day(s).
| Time | Temp. | Humidity | Pressure | Rain* | Wind** | Luminosity | Snow |
|---|---|---|---|---|---|---|---|
| 1778018750 | 12.78° C | 35% | 1012.8 hPa | 0 mm | 0.45 m/s, 12° | 145 W/m² | - |
| 1778018448 | 12.78° C | 36% | 1013 hPa | 0 mm | 0.45 m/s, 29° | 162 W/m² | - |
| 1778018146 | 12.78° C | 36% | 1012.8 hPa | 0 mm | 1.34 m/s, 322° | 162 W/m² | - |
| 1778017844 | 12.78° C | 39% | 1012.7 hPa | 0 mm | 0.45 m/s, 40° | 160 W/m² | - |
| 1778017542 | 12.78° C | 36% | 1012.9 hPa | 0 mm | 0.45 m/s, 72° | 174 W/m² | - |
| 1778017238 | 12.78° C | 38% | 1012.9 hPa | 0 mm | 0.45 m/s, 258° | 158 W/m² | - |
| 1778016936 | 12.78° C | 37% | 1013 hPa | 0 mm | 0.89 m/s, 167° | 166 W/m² | - |
| 1778016632 | 12.78° C | 38% | 1012.9 hPa | 0 mm | 0 m/s | 166 W/m² | - |
| 1778016328 | 12.78° C | 41% | 1012.7 hPa | 0 mm | 0 m/s | 159 W/m² | - |
| 1778016026 | 12.78° C | 36% | 1012.9 hPa | 0 mm | 1.34 m/s, 239° | 168 W/m² | - |
| 1778015723 | 12.78° C | 38% | 1013 hPa | 0 mm | 1.34 m/s, 287° | 186 W/m² | - |
| 1778015419 | 12.78° C | 36% | 1012.9 hPa | 0 mm | 1.34 m/s, 61° | 170 W/m² | - |
| 1778015116 | 12.78° C | 35% | 1012.6 hPa | 0 mm | 1.79 m/s, 193° | 169 W/m² | - |
| 1778014814 | 12.78° C | 35% | 1013 hPa | 0 mm | 1.34 m/s, 119° | 154 W/m² | - |
| 1778014512 | 13.33° C | 35% | 1012.8 hPa | 0 mm | 0.89 m/s, 0° | 199 W/m² | - |
| 1778014208 | 12.78° C | 40% | 1012.9 hPa | 0 mm | 0 m/s | 228 W/m² | - |
| 1778013906 | 12.78° C | 34% | 1012.9 hPa | 0 mm | 0.45 m/s, 3° | 171 W/m² | - |
| 1778013603 | 12.78° C | 36% | 1013.1 hPa | 0 mm | 0 m/s | 173 W/m² | - |
| 1778013299 | 12.78° C | 34% | 1013.1 hPa | 0 mm | 1.34 m/s, 295° | 175 W/m² | - |
| 1778012996 | 12.78° C | 35% | 1012.9 hPa | 0 mm | 0 m/s | 177 W/m² | - |
| 1778012693 | 12.78° C | 34% | 1013.3 hPa | 0 mm | 0.89 m/s, 56° | 180 W/m² | - |
| 1778012388 | 12.78° C | 33% | 1013.2 hPa | 0 mm | 1.34 m/s, 175° | 180 W/m² | - |
| 1778012086 | 12.78° C | 34% | 1013.2 hPa | 0 mm | 0.89 m/s, 21° | 171 W/m² | - |
| 1778011783 | 12.22° C | 33% | 1013.3 hPa | 0 mm | 0 m/s | 166 W/m² | - |
| 1778011481 | 12.78° C | 36% | 1013.5 hPa | 0 mm | 0.89 m/s, 284° | 164 W/m² | - |
* Rain latest hour (hover to see other rain measurements)
** Current wind speed in m/s (hover to see current wind gust speed)